• Join FlightAware (Why Join?)
  • Login
  • US Flag 
06:18AM EDT


 

Airport Tracker/Info


-or-


 

Live Flight TrackerFlight Track Log ✈ AWE4005 ✈ 07-May-2013 ✈ KDCA - KHSV

Flight Track Log - Related Links

Times and Time Zones

All times are in EDT time to prevent confusion due to time zone crossing. See the AWE4005 flight status page for this flight to view local times or setup timezone preferences in your user account.

Time Position Orientation Groundspeed Altitude Reporting Facility
EDT Latitude Longitude Course Direction KTS MPH feet Rate Location/Type
09:28AM 38.9000 -77.1000 270° West 236 272 2,600  Level Potomac TRACON
09:29AM 38.9667 -77.1667 322° Northwest 288 331 5,300 2,640 Climbing Potomac TRACON
09:31AM 39.0000 -77.2500 297° West 297 342 8,000 2,400 Climbing Potomac TRACON
09:32AM 38.9667 -77.3667 250° West 306 352 10,400 2,400 Climbing Potomac TRACON
09:33AM 38.9667 -77.4833 270° West 317 365 13,100 2,400 Climbing Potomac TRACON
09:34AM 38.8501 -77.7828 270° West  Level FlightAware Approximate
09:34AM 38.9350 -77.6706 258° West 319 367 16,800  Level Washington Center
09:35AM 38.9164 -77.7847 258° West 354 407 17,000 360 Climbing Washington Center
09:36AM 38.8928 -77.9361 259° West 384 442 17,600 960 Climbing Washington Center
09:37AM 38.8733 -78.0742 260° West 394 453 19,000 1,320 Climbing Washington Center
09:38AM 38.8558 -78.2119 261° West 400 460 20,300 1,260 Climbing Washington Center
09:39AM 38.8522 -78.3639 268° West 415 478 21,600 1,260 Climbing Washington Center
09:40AM 38.8508 -78.5183 269° West 426 490 22,800 1,020 Climbing Washington Center
09:41AM 38.8492 -78.6678 269° West 426 490 23,700 840 Climbing Washington Center
09:42AM 38.8469 -78.8303 269° West 440 506 24,600 840 Climbing Washington Center
09:43AM 38.8467 -78.9900 270° West 445 512 25,500 720 Climbing Washington Center
09:44AM 38.8419 -79.1497 268° West 450 518 26,100 660 Climbing Washington Center
09:45AM 38.8225 -79.3114 261° West 460 529 26,900 840 Climbing Washington Center
09:46AM 38.7947 -79.4697 257° West 460 529 27,900 1,440 Climbing Washington Center
09:47AM 38.7664 -79.6308 257° West 465 535 29,900 1,260 Climbing Washington Center
09:48AM 38.7408 -79.7706 257° West 460 529 30,400 1,020 Climbing Washington Center
09:49AM 38.7144 -79.9206 257° West 449 517 32,000 780 Climbing Washington Center
09:50AM 38.6839 -80.0731 256° West 444 511 32,000  Level Washington Center
09:51AM 38.6592 -80.1861 254° West 440 506 32,000  Level Indianapolis Center
09:52AM 38.6328 -80.3333 257° West 428 493 32,000  Level Indianapolis Center
09:53AM 38.6044 -80.4772 256° West 418 481 32,000  Level Indianapolis Center
09:54AM 38.5769 -80.6236 257° West 422 486 32,000  Level Indianapolis Center
09:55AM 38.5481 -80.7708 256° West 426 490 32,000  Level Indianapolis Center
09:56AM 38.5192 -80.9200 256° West 430 495 32,000  Level Indianapolis Center
09:57AM 38.4889 -81.0697 256° West 432 497 32,000  Level Indianapolis Center
09:58AM 38.4536 -81.2528 256° West 438 504 32,000  Level Indianapolis Center
09:59AM 38.4231 -81.4044 256° West 436 502 32,000  Level Indianapolis Center
10:00AM 38.3928 -81.5561 256° West 436 502 32,000  Level Indianapolis Center
10:01AM 38.3633 -81.7047 256° West 430 495 32,000  Level Indianapolis Center
10:02AM 38.3278 -81.8511 253° West 429 494 32,000  Level Indianapolis Center
10:03AM 38.2872 -81.9922 250° West 425 489 32,000  Level Indianapolis Center
10:04AM 38.2472 -82.1344 250° West 424 488 32,000  Level Indianapolis Center
10:05AM 38.2072 -82.2758 250° West 424 488 32,000  Level Indianapolis Center
10:06AM 38.1603 -82.4428 250° West 418 481 32,000  Level Indianapolis Center
10:07AM 38.1194 -82.5836 250° West 413 475 32,000  Level Indianapolis Center
10:09AM 38.0797 -82.7197 250° West 411 473 32,000  Level Indianapolis Center
10:10AM 38.0403 -82.8567 250° West 414 476 32,000  Level Indianapolis Center
10:11AM 38.0014 -82.9936 250° West 413 475 32,000  Level Indianapolis Center
10:12AM 37.9611 -83.1294 249° West 412 474 32,000  Level Indianapolis Center
10:13AM 37.8972 -83.2764 241° Southwest 414 476 32,000  Level Indianapolis Center
10:14AM 37.8139 -83.3711 222° Southwest 403 464 32,000  Level Indianapolis Center
10:15AM 37.7303 -83.4650 222° Southwest 403 464 32,000  Level Indianapolis Center
10:16AM 37.6461 -83.5606 222° Southwest 404 465 32,000  Level Indianapolis Center
10:17AM 37.5614 -83.6547 221° Southwest 406 467 32,000 -120 Level Indianapolis Center
10:18AM 37.4611 -83.7675 222° Southwest 412 474 31,800 -600 Descending Indianapolis Center
10:19AM 37.3731 -83.8669 222° Southwest 422 486 30,800 -1,020 Descending Indianapolis Center
10:20AM 37.2828 -83.9675 222° Southwest 432 497 29,800 -900 Descending Indianapolis Center
10:21AM 37.1928 -84.0683 222° Southwest 434 499 29,000 -420 Descending Indianapolis Center
10:22AM 37.1011 -84.1692 221° Southwest 435 501 29,000  Level Indianapolis Center
10:23AM 36.9958 -84.2844 221° Southwest 433 498 29,000  Level Indianapolis Center
10:24AM 36.9069 -84.3822 221° Southwest 427 491 29,000  Level Indianapolis Center
10:25AM 36.8183 -84.4800 221° Southwest 425 489 29,000 -240 Level Indianapolis Center
10:26AM 36.7283 -84.5775 221° Southwest 423 487 28,600 -720 Descending Indianapolis Center
10:27AM 36.6386 -84.6756 221° Southwest 429 494 27,600 -1,020 Descending Indianapolis Center
10:28AM 36.5481 -84.7736 221° Southwest 432 497 26,600 -1,080 Descending Indianapolis Center
10:29AM 36.4397 -84.8903 221° Southwest 430 495 25,400 -780 Descending Indianapolis Center
10:30AM 36.3506 -84.9850 221° Southwest 424 488 25,000 -240 Descending Indianapolis Center
10:31AM 36.2631 -85.0794 221° Southwest 421 484 25,000 -300 Level Indianapolis Center
10:32AM 36.1736 -85.1744 221° Southwest 425 489 24,500 -780 Descending Indianapolis Center
10:33AM 36.0847 -85.2694 221° Southwest 426 490 23,500 -1,080 Descending Indianapolis Center
10:34AM 35.9847 -85.3769 221° Southwest 403 464 22,300 -1,260 Descending Indianapolis Center
10:35AM 35.8994 -85.4667 220° Southwest 404 465 20,900 -1,680 Descending Indianapolis Center
10:36AM 35.8333 -85.5356 220° Southwest 417 480 19,200 -1,980 Descending Memphis Center
10:37AM 35.7511 -85.6222 221° Southwest 407 468 17,300 -1,920 Descending Memphis Center
10:38AM 35.6711 -85.7061 220° Southwest 402 463 15,400 -2,040 Descending Memphis Center
10:39AM 35.5947 -85.7869 221° Southwest 384 442 13,300 -2,100 Descending Memphis Center
10:40AM 35.5244 -85.8572 219° Southwest 360 414 11,300 -1,200 Descending Memphis Center
10:41AM 35.4539 -85.9322 221° Southwest 345 397 11,000 -180 Descending Memphis Center
10:42AM 35.3814 -86.0050 219° Southwest 340 391 11,000  Level Memphis Center
10:43AM 35.3131 -86.0772 221° Southwest 340 391 11,000  Level Memphis Center
10:44AM 35.2447 -86.1494 221° Southwest 340 391 11,000 -240 Level Memphis Center
10:45AM 35.1703 -86.2319 222° Southwest 340 391 10,600 -1,080 Descending Memphis Center
10:46AM 35.1058 -86.2986 220° Southwest 327 376 8,900 -1,680 Descending Memphis Center
10:47AM 35.0511 -86.3544 220° Southwest 315 362 7,300 -1,740 Descending Memphis Center
10:48AM 35.0075 -86.4225 232° Southwest 294 338 5,500 -1,200 Descending Memphis Center
10:49AM 34.9831 -86.5097 251° West 282 325 5,000 -720 Descending Memphis Center
10:50AM 34.9506 -86.6100 248° West 276 318 4,100 -1,020 Descending Memphis Center
10:51AM 34.9217 -86.6822 244° Southwest 259 298 3,000 -600 Descending Memphis Center
10:52AM 34.8878 -86.7394 234° Southwest 239 275 3,000 -180 Level Memphis Center
10:54AM 34.7545 -86.7584 187° South  Level Estimated
10:54AM 34.7842 -86.7642 187° South 197 227 2,500  Level Memphis Center
10:55AM 34.7342 -86.7661 182° South 197 227 2,100 -480 Descending Memphis Center
10:56AM 34.6925 -86.7681 182° South 178 205 1,600 -660 Descending Memphis Center
10:57AM 34.6550 -86.7669 179° South 155 178 800 -840 Descending Memphis Center
11:00AM 34.6333 -86.7667 231° Southwest  Level FlightAware Approximate
11:07AM 34.6372 -86.7751 231° Southwest  Level Estimated